sensor_id;sensor_type;location;lat;lon;timestamp;pressure;altitude;pressure_sealevel;temperature;humidity
22333;BME280;11334;36.986;-121.936;2023-05-10T00:01:40;101012.28;;;31.14;32.00
22333;BME280;11334;36.986;-121.936;2023-05-10T00:04:06;101009.63;;;31.42;32.13
22333;BME280;11334;36.986;-121.936;2023-05-10T00:06:32;101004.13;;;31.47;31.22
22333;BME280;11334;36.986;-121.936;2023-05-10T00:08:58;101017.03;;;31.42;31.22
22333;BME280;11334;36.986;-121.936;2023-05-10T00:11:24;101015.91;;;31.05;32.52
22333;BME280;11334;36.986;-121.936;2023-05-10T00:13:51;101018.53;;;31.19;32.62
22333;BME280;11334;36.986;-121.936;2023-05-10T00:16:17;101023.06;;;30.96;31.66
22333;BME280;11334;36.986;-121.936;2023-05-10T00:18:43;101020.78;;;30.55;32.40
22333;BME280;11334;36.986;-121.936;2023-05-10T00:21:09;101020.53;;;30.37;34.16
22333;BME280;11334;36.986;-121.936;2023-05-10T00:23:36;101019.25;;;30.20;33.43
22333;BME280;11334;36.986;-121.936;2023-05-10T00:26:03;101019.25;;;30.00;33.54
22333;BME280;11334;36.986;-121.936;2023-05-10T00:28:29;101017.59;;;29.45;34.39
22333;BME280;11334;36.986;-121.936;2023-05-10T00:30:55;101013.44;;;29.18;35.70
22333;BME280;11334;36.986;-121.936;2023-05-10T00:33:21;101011.44;;;28.79;35.96
22333;BME280;11334;36.986;-121.936;2023-05-10T00:35:48;101006.91;;;29.19;35.98
22333;BME280;11334;36.986;-121.936;2023-05-10T00:38:14;101003.94;;;29.50;34.98
22333;BME280;11334;36.986;-121.936;2023-05-10T00:40:40;101011.56;;;30.12;33.77
22333;BME280;11334;36.986;-121.936;2023-05-10T00:43:07;101014.19;;;30.56;33.92
22333;BME280;11334;36.986;-121.936;2023-05-10T00:45:33;101006.50;;;31.16;32.70
22333;BME280;11334;36.986;-121.936;2023-05-10T00:48:02;100984.13;;;31.75;32.51
22333;BME280;11334;36.986;-121.936;2023-05-10T00:50:30;101002.09;;;32.18;31.26
22333;BME280;11334;36.986;-121.936;2023-05-10T00:52:58;101000.41;;;32.22;31.16
22333;BME280;11334;36.986;-121.936;2023-05-10T00:55:25;101008.31;;;32.01;31.08
22333;BME280;11334;36.986;-121.936;2023-05-10T00:57:52;101002.72;;;32.39;30.64
22333;BME280;11334;36.986;-121.936;2023-05-10T01:00:19;101012.59;;;32.63;30.63
22333;BME280;11334;36.986;-121.936;2023-05-10T01:02:46;101013.47;;;33.00;29.93
22333;BME280;11334;36.986;-121.936;2023-05-10T01:05:13;101029.56;;;33.29;29.51
22333;BME280;11334;36.986;-121.936;2023-05-10T01:07:39;101008.09;;;33.63;29.24
22333;BME280;11334;36.986;-121.936;2023-05-10T01:10:08;101022.22;;;34.06;28.55
22333;BME280;11334;36.986;-121.936;2023-05-10T01:12:38;101024.88;;;34.42;27.91
22333;BME280;11334;36.986;-121.936;2023-05-10T01:15:06;101023.13;;;34.86;27.40
22333;BME280;11334;36.986;-121.936;2023-05-10T01:17:35;101030.97;;;34.26;25.26
22333;BME280;11334;36.986;-121.936;2023-05-10T01:20:03;101027.91;;;33.96;25.37
22333;BME280;11334;36.986;-121.936;2023-05-10T01:22:42;101023.41;;;34.32;25.51
22333;BME280;11334;36.986;-121.936;2023-05-10T01:34:01;101028.81;;;33.24;29.11
22333;BME280;11334;36.986;-121.936;2023-05-10T01:36:48;101026.91;;;33.01;27.77
22333;BME280;11334;36.986;-121.936;2023-05-10T01:39:36;101035.88;;;32.88;28.33
22333;BME280;11334;36.986;-121.936;2023-05-10T01:42:11;101035.59;;;32.90;27.22
22333;BME280;11334;36.986;-121.936;2023-05-10T01:44:48;101027.38;;;32.67;28.02
22333;BME280;11334;36.986;-121.936;2023-05-10T01:47:54;101037.75;;;32.46;27.78
22333;BME280;11334;36.986;-121.936;2023-05-10T01:50:28;101042.97;;;31.92;28.85
22333;BME280;11334;36.986;-121.936;2023-05-10T01:52:57;101051.59;;;31.81;29.52
22333;BME280;11334;36.986;-121.936;2023-05-10T01:55:27;101049.16;;;31.36;29.83
22333;BME280;11334;36.986;-121.936;2023-05-10T01:58:05;101061.78;;;30.70;29.15
22333;BME280;11334;36.986;-121.936;2023-05-10T02:00:33;101060.72;;;30.51;31.14
22333;BME280;11334;36.986;-121.936;2023-05-10T02:03:03;101065.06;;;30.77;29.52
22333;BME280;11334;36.986;-121.936;2023-05-10T02:05:32;101065.84;;;30.87;29.79
22333;BME280;11334;36.986;-121.936;2023-05-10T02:07:59;101059.44;;;31.06;29.08
22333;BME280;11334;36.986;-121.936;2023-05-10T02:10:28;101068.19;;;31.08;28.75
22333;BME280;11334;36.986;-121.936;2023-05-10T02:12:55;101074.06;;;30.87;27.91
22333;BME280;11334;36.986;-121.936;2023-05-10T02:15:25;101079.94;;;30.21;28.51
22333;BME280;11334;36.986;-121.936;2023-05-10T02:17:54;101077.16;;;29.53;30.05
22333;BME280;11334;36.986;-121.936;2023-05-10T02:20:22;101078.81;;;28.78;30.65
22333;BME280;11334;36.986;-121.936;2023-05-10T02:22:50;101084.75;;;28.20;31.60
22333;BME280;11334;36.986;-121.936;2023-05-10T02:25:19;101087.84;;;27.19;32.18
22333;BME280;11334;36.986;-121.936;2023-05-10T02:27:47;101091.03;;;26.73;33.38
22333;BME280;11334;36.986;-121.936;2023-05-10T02:30:15;101102.34;;;25.96;34.01
22333;BME280;11334;36.986;-121.936;2023-05-10T02:32:43;101096.66;;;25.37;35.26
22333;BME280;11334;36.986;-121.936;2023-05-10T02:35:10;101106.59;;;25.04;35.98
22333;BME280;11334;36.986;-121.936;2023-05-10T02:37:37;101116.22;;;24.61;36.53
22333;BME280;11334;36.986;-121.936;2023-05-10T02:40:11;101111.28;;;24.24;37.28
22333;BME280;11334;36.986;-121.936;2023-05-10T02:42:38;101119.09;;;23.80;38.43
22333;BME280;11334;36.986;-121.936;2023-05-10T02:45:11;101124.31;;;23.53;39.31
22333;BME280;11334;36.986;-121.936;2023-05-10T02:47:38;101126.31;;;23.28;40.92
22333;BME280;11334;36.986;-121.936;2023-05-10T02:50:05;101137.59;;;23.08;42.06
22333;BME280;11334;36.986;-121.936;2023-05-10T02:52:49;101141.50;;;22.76;42.65
22333;BME280;11334;36.986;-121.936;2023-05-10T02:55:21;101140.97;;;22.50;42.58
22333;BME280;11334;36.986;-121.936;2023-05-10T02:57:54;101136.78;;;22.06;43.00
22333;BME280;11334;36.986;-121.936;2023-05-10T03:00:23;101141.91;;;21.89;44.95
22333;BME280;11334;36.986;-121.936;2023-05-10T03:02:50;101154.91;;;21.75;44.45
22333;BME280;11334;36.986;-121.936;2023-05-10T03:05:16;101162.03;;;21.63;43.89
22333;BME280;11334;36.986;-121.936;2023-05-10T03:07:43;101174.81;;;21.43;45.45
22333;BME280;11334;36.986;-121.936;2023-05-10T03:10:09;101176.50;;;21.38;45.33
22333;BME280;11334;36.986;-121.936;2023-05-10T03:18:12;101182.84;;;21.00;46.57
22333;BME280;11334;36.986;-121.936;2023-05-10T03:20:49;101193.84;;;20.92;47.14
22333;BME280;11334;36.986;-121.936;2023-05-10T03:23:35;101191.44;;;20.71;47.71
22333;BME280;11334;36.986;-121.936;2023-05-10T03:26:06;101201.63;;;20.57;48.12
22333;BME280;11334;36.986;-121.936;2023-05-10T03:28:34;101206.75;;;20.45;48.28
22333;BME280;11334;36.986;-121.936;2023-05-10T03:31:02;101196.00;;;20.32;49.23
22333;BME280;11334;36.986;-121.936;2023-05-10T03:33:31;101205.53;;;20.28;48.70
22333;BME280;11334;36.986;-121.936;2023-05-10T03:35:58;101207.41;;;20.09;49.72
22333;BME280;11334;36.986;-121.936;2023-05-10T03:38:24;101214.47;;;20.16;50.19
22333;BME280;11334;36.986;-121.936;2023-05-10T03:40:50;101219.22;;;20.14;50.01
22333;BME280;11334;36.986;-121.936;2023-05-10T03:43:16;101216.72;;;20.06;49.43
22333;BME280;11334;36.986;-121.936;2023-05-10T03:45:43;101221.47;;;20.04;50.28
22333;BME280;11334;36.986;-121.936;2023-05-10T03:48:09;101219.59;;;19.92;50.08
22333;BME280;11334;36.986;-121.936;2023-05-10T03:50:35;101220.41;;;19.93;50.28
22333;BME280;11334;36.986;-121.936;2023-05-10T03:53:01;101216.66;;;19.74;51.26
22333;BME280;11334;36.986;-121.936;2023-05-10T03:55:27;101220.97;;;19.75;51.01
22333;BME280;11334;36.986;-121.936;2023-05-10T03:57:55;101223.25;;;19.72;51.27
22333;BME280;11334;36.986;-121.936;2023-05-10T04:00:21;101212.44;;;19.59;52.10
22333;BME280;11334;36.986;-121.936;2023-05-10T04:02:47;101226.72;;;19.53;51.96
22333;BME280;11334;36.986;-121.936;2023-05-10T04:05:14;101221.09;;;19.48;52.29
22333;BME280;11334;36.986;-121.936;2023-05-10T04:07:40;101228.72;;;19.38;52.71
22333;BME280;11334;36.986;-121.936;2023-05-10T04:10:06;101224.94;;;19.27;52.79
22333;BME280;11334;36.986;-121.936;2023-05-10T04:12:33;101241.84;;;19.14;52.95
22333;BME280;11334;36.986;-121.936;2023-05-10T04:14:59;101245.13;;;19.10;53.26
22333;BME280;11334;36.986;-121.936;2023-05-10T04:17:25;101244.09;;;19.11;54.20
22333;BME280;11334;36.986;-121.936;2023-05-10T04:19:52;101237.47;;;19.07;54.54
22333;BME280;11334;36.986;-121.936;2023-05-10T04:22:20;101247.09;;;18.95;54.87
22333;BME280;11334;36.986;-121.936;2023-05-10T04:24:46;101242.91;;;18.86;54.46
22333;BME280;11334;36.986;-121.936;2023-05-10T04:27:12;101245.66;;;18.66;55.49
22333;BME280;11334;36.986;-121.936;2023-05-10T04:29:38;101246.66;;;18.65;56.30
22333;BME280;11334;36.986;-121.936;2023-05-10T04:32:05;101250.91;;;18.53;56.37
22333;BME280;11334;36.986;-121.936;2023-05-10T04:34:31;101247.47;;;18.38;56.28
22333;BME280;11334;36.986;-121.936;2023-05-10T04:37:00;101250.13;;;18.32;56.53
22333;BME280;11334;36.986;-121.936;2023-05-10T04:39:26;101248.47;;;18.31;56.57
22333;BME280;11334;36.986;-121.936;2023-05-10T04:41:52;101254.34;;;18.20;57.24
22333;BME280;11334;36.986;-121.936;2023-05-10T04:44:19;101251.25;;;18.16;57.34
22333;BME280;11334;36.986;-121.936;2023-05-10T04:46:45;101260.91;;;17.97;58.25
22333;BME280;11334;36.986;-121.936;2023-05-10T04:49:11;101260.91;;;17.97;58.29
22333;BME280;11334;36.986;-121.936;2023-05-10T04:51:38;101267.22;;;17.89;58.25
22333;BME280;11334;36.986;-121.936;2023-05-10T04:54:04;101280.47;;;17.76;59.03
22333;BME280;11334;36.986;-121.936;2023-05-10T04:56:30;101277.34;;;17.73;58.96
22333;BME280;11334;36.986;-121.936;2023-05-10T04:58:56;101276.81;;;17.63;58.94
22333;BME280;11334;36.986;-121.936;2023-05-10T05:01:23;101282.31;;;17.55;59.81
22333;BME280;11334;36.986;-121.936;2023-05-10T05:03:49;101288.44;;;17.49;59.89
22333;BME280;11334;36.986;-121.936;2023-05-10T05:06:16;101278.06;;;17.46;60.12
22333;BME280;11334;36.986;-121.936;2023-05-10T05:08:42;101272.38;;;17.35;60.92
22333;BME280;11334;36.986;-121.936;2023-05-10T05:11:08;101282.81;;;17.30;61.18
22333;BME280;11334;36.986;-121.936;2023-05-10T05:13:34;101281.63;;;17.18;61.79
22333;BME280;11334;36.986;-121.936;2023-05-10T05:16:02;101288.34;;;17.14;62.31
22333;BME280;11334;36.986;-121.936;2023-05-10T05:18:28;101280.56;;;17.05;62.87
22333;BME280;11334;36.986;-121.936;2023-05-10T05:20:54;101274.56;;;17.03;63.23
22333;BME280;11334;36.986;-121.936;2023-05-10T05:23:21;101259.69;;;16.86;63.70
22333;BME280;11334;36.986;-121.936;2023-05-10T05:25:53;101280.19;;;16.94;63.69
22333;BME280;11334;36.986;-121.936;2023-05-10T05:28:20;101280.38;;;16.92;64.06
22333;BME280;11334;36.986;-121.936;2023-05-10T05:30:46;101286.28;;;16.88;64.21
22333;BME280;11334;36.986;-121.936;2023-05-10T05:33:16;101286.09;;;16.89;64.15
22333;BME280;11334;36.986;-121.936;2023-05-10T05:35:42;101288.03;;;16.81;64.50
22333;BME280;11334;36.986;-121.936;2023-05-10T05:38:13;101293.28;;;16.75;64.91
22333;BME280;11334;36.986;-121.936;2023-05-10T05:40:39;101287.09;;;16.74;65.36
22333;BME280;11334;36.986;-121.936;2023-05-10T05:43:05;101288.47;;;16.70;65.40
22333;BME280;11334;36.986;-121.936;2023-05-10T05:45:31;101289.31;;;16.71;65.39
22333;BME280;11334;36.986;-121.936;2023-05-10T05:47:58;101298.88;;;16.65;65.75
22333;BME280;11334;36.986;-121.936;2023-05-10T05:50:24;101290.41;;;16.62;65.68
22333;BME280;11334;36.986;-121.936;2023-05-10T05:52:50;101294.81;;;16.55;65.92
22333;BME280;11334;36.986;-121.936;2023-05-10T05:55:16;101291.94;;;16.42;66.80
22333;BME280;11334;36.986;-121.936;2023-05-10T05:57:43;101290.28;;;16.41;67.28
22333;BME280;11334;36.986;-121.936;2023-05-10T06:00:09;101295.03;;;16.31;67.46
22333;BME280;11334;36.986;-121.936;2023-05-10T06:02:35;101290.38;;;16.25;67.48
22333;BME280;11334;36.986;-121.936;2023-05-10T06:05:02;101297.13;;;16.21;68.10
22333;BME280;11334;36.986;-121.936;2023-05-10T06:07:28;101297.50;;;16.18;68.64
22333;BME280;11334;36.986;-121.936;2023-05-10T06:09:54;101292.03;;;16.04;68.97
22333;BME280;11334;36.986;-121.936;2023-05-10T06:12:21;101292.94;;;15.97;69.04
22333;BME280;11334;36.986;-121.936;2023-05-10T06:14:47;101295.00;;;15.87;69.72
22333;BME280;11334;36.986;-121.936;2023-05-10T06:17:13;101288.41;;;15.75;70.04
22333;BME280;11334;36.986;-121.936;2023-05-10T06:19:39;101291.06;;;15.75;70.33
22333;BME280;11334;36.986;-121.936;2023-05-10T06:22:06;101280.75;;;15.72;70.17
22333;BME280;11334;36.986;-121.936;2023-05-10T06:24:32;101292.41;;;15.71;69.94
22333;BME280;11334;36.986;-121.936;2023-05-10T06:26:58;101288.97;;;15.63;70.90
22333;BME280;11334;36.986;-121.936;2023-05-10T06:29:26;101296.81;;;15.64;70.36
22333;BME280;11334;36.986;-121.936;2023-05-10T06:31:52;101301.72;;;15.53;70.02
22333;BME280;11334;36.986;-121.936;2023-05-10T06:34:19;101309.78;;;15.45;70.73
22333;BME280;11334;36.986;-121.936;2023-05-10T06:36:46;101310.47;;;15.31;71.65
22333;BME280;11334;36.986;-121.936;2023-05-10T06:39:12;101309.31;;;15.34;72.29
22333;BME280;11334;36.986;-121.936;2023-05-10T06:41:38;101303.19;;;15.25;72.56
22333;BME280;11334;36.986;-121.936;2023-05-10T06:44:04;101313.22;;;15.16;72.80
22333;BME280;11334;36.986;-121.936;2023-05-10T06:46:31;101312.91;;;15.03;73.31
22333;BME280;11334;36.986;-121.936;2023-05-10T06:48:57;101315.56;;;15.03;73.60
22333;BME280;11334;36.986;-121.936;2023-05-10T06:51:23;101319.06;;;15.03;73.50
22333;BME280;11334;36.986;-121.936;2023-05-10T06:53:49;101311.75;;;14.97;73.78
22333;BME280;11334;36.986;-121.936;2023-05-10T06:56:15;101299.25;;;14.82;74.09
22333;BME280;11334;36.986;-121.936;2023-05-10T06:58:42;101315.47;;;14.81;75.17
22333;BME280;11334;36.986;-121.936;2023-05-10T07:01:08;101308.66;;;14.70;75.36
22333;BME280;11334;36.986;-121.936;2023-05-10T07:03:34;101305.78;;;14.72;75.44
22333;BME280;11334;36.986;-121.936;2023-05-10T07:06:04;101305.13;;;14.70;75.39
22333;BME280;11334;36.986;-121.936;2023-05-10T07:08:34;101305.13;;;14.62;75.64
22333;BME280;11334;36.986;-121.936;2023-05-10T07:11:05;101302.81;;;14.51;76.46
22333;BME280;11334;36.986;-121.936;2023-05-10T07:13:33;101300.81;;;14.45;76.73
22333;BME280;11334;36.986;-121.936;2023-05-10T07:16:00;101305.00;;;14.40;76.55
22333;BME280;11334;36.986;-121.936;2023-05-10T07:18:27;101306.34;;;14.36;76.82
22333;BME280;11334;36.986;-121.936;2023-05-10T07:20:54;101305.16;;;14.30;77.11
22333;BME280;11334;36.986;-121.936;2023-05-10T07:23:20;101300.16;;;14.35;77.99
22333;BME280;11334;36.986;-121.936;2023-05-10T07:25:48;101298.16;;;14.37;77.97
22333;BME280;11334;36.986;-121.936;2023-05-10T07:28:15;101296.50;;;14.28;77.98
22333;BME280;11334;36.986;-121.936;2023-05-10T07:30:44;101302.66;;;14.29;78.20
22333;BME280;11334;36.986;-121.936;2023-05-10T07:33:12;101297.34;;;14.21;78.58
22333;BME280;11334;36.986;-121.936;2023-05-10T07:35:38;101302.81;;;14.20;78.69
22333;BME280;11334;36.986;-121.936;2023-05-10T07:38:05;101297.84;;;14.17;79.01
22333;BME280;11334;36.986;-121.936;2023-05-10T07:40:31;101297.16;;;14.22;78.52
22333;BME280;11334;36.986;-121.936;2023-05-10T07:42:58;101303.50;;;14.29;78.58
22333;BME280;11334;36.986;-121.936;2023-05-10T07:45:25;101302.16;;;14.18;78.78
22333;BME280;11334;36.986;-121.936;2023-05-10T07:47:51;101311.50;;;14.14;79.86
22333;BME280;11334;36.986;-121.936;2023-05-10T07:50:18;101308.97;;;14.12;79.94
22333;BME280;11334;36.986;-121.936;2023-05-10T07:52:44;101306.31;;;14.12;79.63
22333;BME280;11334;36.986;-121.936;2023-05-10T07:55:10;101303.81;;;14.11;79.47
22333;BME280;11334;36.986;-121.936;2023-05-10T07:57:38;101304.31;;;14.14;79.55
22333;BME280;11334;36.986;-121.936;2023-05-10T08:00:08;101284.66;;;14.07;79.60
22333;BME280;11334;36.986;-121.936;2023-05-10T08:02:35;101288.84;;;14.02;79.69
22333;BME280;11334;36.986;-121.936;2023-05-10T08:05:01;101299.81;;;13.99;79.77
22333;BME280;11334;36.986;-121.936;2023-05-10T08:07:28;101307.09;;;13.97;80.21
22333;BME280;11334;36.986;-121.936;2023-05-10T08:09:54;101298.44;;;13.95;80.15
22333;BME280;11334;36.986;-121.936;2023-05-10T08:12:20;101292.28;;;13.94;79.72
22333;BME280;11334;36.986;-121.936;2023-05-10T08:14:46;101296.78;;;13.94;79.37
22333;BME280;11334;36.986;-121.936;2023-05-10T08:17:13;101290.44;;;13.87;79.63
22333;BME280;11334;36.986;-121.936;2023-05-10T08:19:39;101290.59;;;13.86;79.88
22333;BME280;11334;36.986;-121.936;2023-05-10T08:22:05;101296.78;;;13.86;80.58
22333;BME280;11334;36.986;-121.936;2023-05-10T08:24:32;101288.59;;;13.80;80.41
22333;BME280;11334;36.986;-121.936;2023-05-10T08:26:58;101293.09;;;13.79;80.38
22333;BME280;11334;36.986;-121.936;2023-05-10T08:29:24;101282.94;;;13.75;80.71
22333;BME280;11334;36.986;-121.936;2023-05-10T08:31:50;101286.75;;;13.72;80.28
22333;BME280;11334;36.986;-121.936;2023-05-10T08:34:16;101285.91;;;13.64;80.60
22333;BME280;11334;36.986;-121.936;2023-05-10T08:36:43;101293.03;;;13.63;80.80
22333;BME280;11334;36.986;-121.936;2023-05-10T08:39:09;101292.19;;;13.55;81.54
22333;BME280;11334;36.986;-121.936;2023-05-10T08:41:37;101292.34;;;13.46;81.92
22333;BME280;11334;36.986;-121.936;2023-05-10T08:44:06;101288.69;;;13.47;82.32
22333;BME280;11334;36.986;-121.936;2023-05-10T08:46:34;101293.69;;;13.50;82.21
22333;BME280;11334;36.986;-121.936;2023-05-10T08:49:06;101286.34;;;13.44;81.79
22333;BME280;11334;36.986;-121.936;2023-05-10T08:51:36;101286.84;;;13.39;82.35
22333;BME280;11334;36.986;-121.936;2023-05-10T08:54:06;101278.84;;;13.39;81.90
22333;BME280;11334;36.986;-121.936;2023-05-10T08:56:33;101281.34;;;13.41;82.10
22333;BME280;11334;36.986;-121.936;2023-05-10T08:58:59;101263.38;;;13.35;81.83
22333;BME280;11334;36.986;-121.936;2023-05-10T09:01:31;101278.84;;;13.39;81.98
22333;BME280;11334;36.986;-121.936;2023-05-10T09:03:59;101267.81;;;13.26;82.39
22333;BME280;11334;36.986;-121.936;2023-05-10T09:06:25;101268.00;;;13.33;82.46
22333;BME280;11334;36.986;-121.936;2023-05-10T09:08:52;101264.00;;;13.29;82.68
22333;BME280;11334;36.986;-121.936;2023-05-10T09:11:20;101270.78;;;13.16;83.39
22333;BME280;11334;36.986;-121.936;2023-05-10T09:13:48;101269.28;;;13.21;83.83
22333;BME280;11334;36.986;-121.936;2023-05-10T09:16:16;101273.59;;;13.14;83.33
22333;BME280;11334;36.986;-121.936;2023-05-10T09:18:42;101253.06;;;12.99;83.82
22333;BME280;11334;36.986;-121.936;2023-05-10T09:21:09;101272.56;;;13.07;83.82
22333;BME280;11334;36.986;-121.936;2023-05-10T09:23:36;101269.06;;;13.07;84.08
22333;BME280;11334;36.986;-121.936;2023-05-10T09:26:06;101275.25;;;13.07;84.28
22333;BME280;11334;36.986;-121.936;2023-05-10T09:28:51;101271.06;;;13.05;83.97
22333;BME280;11334;36.986;-121.936;2023-05-10T09:31:18;101273.88;;;13.03;84.22
22333;BME280;11334;36.986;-121.936;2023-05-10T09:33:45;101276.38;;;13.05;84.37
22333;BME280;11334;36.986;-121.936;2023-05-10T09:36:14;101274.34;;;12.99;84.98
22333;BME280;11334;36.986;-121.936;2023-05-10T09:38:47;101274.19;;;13.00;84.94
22333;BME280;11334;36.986;-121.936;2023-05-10T09:41:23;101273.38;;;13.00;84.64
22333;BME280;11334;36.986;-121.936;2023-05-10T09:43:55;101280.81;;;12.96;84.12
22333;BME280;11334;36.986;-121.936;2023-05-10T09:46:22;101275.47;;;12.89;84.20
22333;BME280;11334;36.986;-121.936;2023-05-10T09:48:48;101270.34;;;12.95;84.53
22333;BME280;11334;36.986;-121.936;2023-05-10T09:51:24;101264.50;;;12.92;84.22
22333;BME280;11334;36.986;-121.936;2023-05-10T09:54:11;101277.13;;;12.90;83.85
22333;BME280;11334;36.986;-121.936;2023-05-10T09:56:39;101275.78;;;12.86;83.45
22333;BME280;11334;36.986;-121.936;2023-05-10T09:59:08;101265.88;;;12.70;84.02
22333;BME280;11334;36.986;-121.936;2023-05-10T10:01:35;101278.66;;;12.75;84.16
22333;BME280;11334;36.986;-121.936;2023-05-10T10:04:06;101276.19;;;12.73;84.02
22333;BME280;11334;36.986;-121.936;2023-05-10T10:06:39;101268.31;;;12.64;84.27
22333;BME280;11334;36.986;-121.936;2023-05-10T10:09:06;101285.09;;;12.64;84.28
22333;BME280;11334;36.986;-121.936;2023-05-10T10:11:37;101283.03;;;12.51;84.79
22333;BME280;11334;36.986;-121.936;2023-05-10T10:14:04;101285.63;;;12.43;85.10
22333;BME280;11334;36.986;-121.936;2023-05-10T10:16:31;101283.63;;;12.45;85.12
22333;BME280;11334;36.986;-121.936;2023-05-10T10:18:58;101280.31;;;12.43;85.14
22333;BME280;11334;36.986;-121.936;2023-05-10T10:21:24;101284.94;;;12.41;85.60
22333;BME280;11334;36.986;-121.936;2023-05-10T10:23:51;101284.75;;;12.42;85.02
22333;BME280;11334;36.986;-121.936;2023-05-10T10:26:19;101289.88;;;12.36;85.48
22333;BME280;11334;36.986;-121.936;2023-05-10T10:34:31;101296.19;;;12.18;86.59
22333;BME280;11334;36.986;-121.936;2023-05-10T10:36:58;101271.78;;;12.14;86.62
22333;BME280;11334;36.986;-121.936;2023-05-10T10:39:30;101273.44;;;12.15;86.97
22333;BME280;11334;36.986;-121.936;2023-05-10T10:41:58;101280.88;;;12.12;87.29
22333;BME280;11334;36.986;-121.936;2023-05-10T10:49:44;101283.47;;;12.04;88.04
22333;BME280;11334;36.986;-121.936;2023-05-10T10:52:15;101281.50;;;12.06;88.79
22333;BME280;11334;36.986;-121.936;2023-05-10T10:55:13;101285.75;;;11.99;89.25
22333;BME280;11334;36.986;-121.936;2023-05-10T10:57:48;101282.41;;;11.97;89.30
22333;BME280;11334;36.986;-121.936;2023-05-10T11:00:23;101281.72;;;11.95;89.04
22333;BME280;11334;36.986;-121.936;2023-05-10T11:03:09;101284.53;;;11.94;89.19
22333;BME280;11334;36.986;-121.936;2023-05-10T11:05:45;101283.63;;;11.85;89.67
22333;BME280;11334;36.986;-121.936;2023-05-10T11:08:46;101276.34;;;11.87;88.91
22333;BME280;11334;36.986;-121.936;2023-05-10T11:11:06;101277.78;;;11.82;89.31
22333;BME280;11334;36.986;-121.936;2023-05-10T11:13:38;101269.44;;;11.77;89.50
22333;BME280;11334;36.986;-121.936;2023-05-10T11:16:19;101283.22;;;11.80;89.42
22333;BME280;11334;36.986;-121.936;2023-05-10T11:19:12;101285.75;;;11.82;89.59
22333;BME280;11334;36.986;-121.936;2023-05-10T11:24:38;101272.91;;;11.60;89.53
22333;BME280;11334;36.986;-121.936;2023-05-10T11:27:05;101282.34;;;11.72;89.47
22333;BME280;11334;36.986;-121.936;2023-05-10T11:29:32;101278.31;;;11.68;89.40
22333;BME280;11334;36.986;-121.936;2023-05-10T11:31:59;101287.09;;;11.68;89.15
22333;BME280;11334;36.986;-121.936;2023-05-10T11:34:29;101289.59;;;11.70;89.97
22333;BME280;11334;36.986;-121.936;2023-05-10T11:36:57;101282.41;;;11.63;89.17
22333;BME280;11334;36.986;-121.936;2023-05-10T11:39:31;101294.84;;;11.62;89.75
22333;BME280;11334;36.986;-121.936;2023-05-10T11:41:58;101291.63;;;11.59;89.46
22333;BME280;11334;36.986;-121.936;2023-05-10T11:44:32;101293.63;;;11.57;89.56
22333;BME280;11334;36.986;-121.936;2023-05-10T11:47:02;101281.63;;;11.53;89.42
22333;BME280;11334;36.986;-121.936;2023-05-10T11:49:28;101278.16;;;11.52;89.98
22333;BME280;11334;36.986;-121.936;2023-05-10T11:52:07;101283.06;;;11.47;89.96
22333;BME280;11334;36.986;-121.936;2023-05-10T11:54:33;101287.75;;;11.53;90.09
22333;BME280;11334;36.986;-121.936;2023-05-10T11:57:03;101291.94;;;11.56;89.65
22333;BME280;11334;36.986;-121.936;2023-05-10T11:59:29;101291.09;;;11.55;89.10
22333;BME280;11334;36.986;-121.936;2023-05-10T12:01:55;101288.91;;;11.51;89.02
22333;BME280;11334;36.986;-121.936;2023-05-10T12:04:22;101291.03;;;11.47;88.74
22333;BME280;11334;36.986;-121.936;2023-05-10T12:06:48;101293.97;;;11.44;89.49
22333;BME280;11334;36.986;-121.936;2023-05-10T12:09:14;101292.97;;;11.45;89.37
22333;BME280;11334;36.986;-121.936;2023-05-10T12:11:41;101297.47;;;11.45;90.01
22333;BME280;11334;36.986;-121.936;2023-05-10T12:14:08;101303.19;;;11.40;89.55
22333;BME280;11334;36.986;-121.936;2023-05-10T12:16:35;101300.44;;;11.33;89.81
22333;BME280;11334;36.986;-121.936;2023-05-10T12:19:02;101297.78;;;11.33;90.21
22333;BME280;11334;36.986;-121.936;2023-05-10T12:21:29;101306.78;;;11.22;90.58
22333;BME280;11334;36.986;-121.936;2023-05-10T12:24:03;101310.13;;;11.24;90.84
22333;BME280;11334;36.986;-121.936;2023-05-10T12:26:30;101307.22;;;11.18;91.22
22333;BME280;11334;36.986;-121.936;2023-05-10T12:29:16;101313.78;;;11.14;92.08
22333;BME280;11334;36.986;-121.936;2023-05-10T12:31:56;101313.94;;;11.12;92.22
22333;BME280;11334;36.986;-121.936;2023-05-10T12:34:29;101302.13;;;11.07;92.29
22333;BME280;11334;36.986;-121.936;2023-05-10T12:36:56;101315.31;;;11.16;92.23
22333;BME280;11334;36.986;-121.936;2023-05-10T12:39:23;101323.72;;;11.12;92.39
22333;BME280;11334;36.986;-121.936;2023-05-10T12:41:49;101323.84;;;11.10;91.92
22333;BME280;11334;36.986;-121.936;2023-05-10T12:44:15;101323.41;;;11.15;91.77
22333;BME280;11334;36.986;-121.936;2023-05-10T12:46:41;101326.22;;;11.13;90.83
22333;BME280;11334;36.986;-121.936;2023-05-10T12:49:07;101321.22;;;11.01;91.01
22333;BME280;11334;36.986;-121.936;2023-05-10T12:51:34;101329.63;;;10.97;91.58
22333;BME280;11334;36.986;-121.936;2023-05-10T12:54:00;101332.72;;;10.92;91.64
22333;BME280;11334;36.986;-121.936;2023-05-10T12:56:26;101333.78;;;10.99;91.44